createdAt,value
2022-09-04T00:00:37.784Z,762.00
2022-09-04T00:01:40.088Z,762.00
2022-09-04T00:02:38.569Z,760.00
2022-09-04T00:03:39.950Z,759.00
2022-09-04T00:04:39.523Z,759.00
2022-09-04T00:05:39.794Z,759.00
2022-09-04T00:06:40.207Z,759.00
2022-09-04T00:07:41.073Z,759.00
2022-09-04T00:08:42.998Z,759.00
2022-09-04T00:09:42.943Z,760.00
2022-09-04T00:10:43.561Z,760.00
2022-09-04T00:11:43.675Z,760.00
2022-09-04T00:12:43.970Z,760.00
2022-09-04T00:13:44.160Z,761.00
2022-09-04T00:13:55.040Z,761.00
2022-09-04T00:14:55.713Z,762.00
2022-09-04T00:15:56.530Z,763.00
2022-09-04T00:16:57.057Z,762.00
2022-09-04T00:17:57.556Z,762.00
2022-09-04T00:18:58.220Z,762.00
2022-09-04T00:19:59.735Z,760.00
2022-09-04T00:20:59.174Z,760.00
2022-09-04T00:21:59.665Z,760.00
2022-09-04T00:23:01.090Z,760.00
2022-09-04T00:24:00.595Z,760.00
2022-09-04T00:25:01.119Z,759.00
2022-09-04T00:26:01.621Z,759.00
2022-09-04T00:27:02.106Z,759.00
2022-09-04T00:28:02.780Z,758.00
2022-09-04T00:29:04.236Z,759.00
2022-09-04T00:30:03.666Z,759.00
2022-09-04T00:31:04.725Z,759.00
2022-09-04T00:32:05.431Z,758.00
2022-09-04T00:33:06.398Z,759.00
2022-09-04T00:34:07.056Z,758.00
2022-09-04T00:35:07.977Z,759.00
2022-09-04T00:36:09.856Z,759.00
2022-09-04T00:37:09.529Z,758.00
2022-09-04T00:38:09.929Z,758.00
2022-09-04T00:39:11.981Z,758.00
2022-09-04T00:39:19.013Z,758.00
2022-09-04T00:40:19.291Z,759.00
2022-09-04T00:41:20.592Z,759.00
2022-09-04T00:42:19.684Z,759.00
2022-09-04T00:43:21.199Z,760.00
2022-09-04T00:44:22.004Z,760.00
2022-09-04T00:45:21.987Z,762.00
2022-09-04T00:46:21.665Z,760.00
2022-09-04T00:47:22.003Z,760.00
2022-09-04T00:48:22.658Z,760.00
2022-09-04T00:49:22.827Z,759.00
2022-09-04T00:50:23.795Z,759.00
2022-09-04T00:51:24.610Z,759.00
2022-09-04T00:52:31.340Z,759.00
2022-09-04T00:53:26.176Z,758.00
2022-09-04T00:54:26.608Z,758.00
2022-09-04T00:55:27.501Z,759.00
2022-09-04T00:56:28.237Z,761.00
2022-09-04T00:57:28.862Z,760.00
2022-09-04T00:58:28.869Z,760.00
2022-09-04T00:59:30.758Z,760.00
2022-09-04T01:00:30.532Z,760.00
2022-09-04T01:01:31.369Z,762.00
2022-09-04T01:02:32.297Z,760.00
2022-09-04T01:03:32.955Z,760.00
2022-09-04T01:03:45.712Z,760.00
2022-09-04T01:04:45.682Z,759.00
2022-09-04T01:05:46.337Z,760.00
2022-09-04T01:06:47.156Z,760.00
2022-09-04T01:07:47.924Z,760.00
2022-09-04T01:08:48.942Z,760.00
2022-09-04T01:09:49.650Z,760.00
2022-09-04T01:10:50.559Z,760.00
2022-09-04T01:11:51.051Z,759.00
2022-09-04T01:12:52.388Z,759.00
2022-09-04T01:13:52.904Z,759.00
2022-09-04T01:14:53.411Z,762.00
2022-09-04T01:15:52.533Z,760.00
2022-09-04T01:16:53.049Z,760.00
2022-09-04T01:17:53.372Z,762.00
2022-09-04T01:18:53.679Z,760.00
2022-09-04T01:19:53.981Z,760.00
2022-09-04T01:20:55.121Z,759.00
2022-09-04T01:21:54.637Z,760.00
2022-09-04T01:22:56.113Z,760.00
2022-09-04T01:23:55.598Z,762.00
2022-09-04T01:24:56.941Z,761.00
2022-09-04T01:25:57.524Z,760.00
2022-09-04T01:26:56.983Z,760.00
2022-09-04T01:27:57.578Z,759.00
2022-09-04T01:28:06.237Z,759.00
2022-09-04T01:29:06.960Z,762.00
2022-09-04T01:30:07.372Z,763.00
2022-09-04T01:31:08.948Z,763.00
2022-09-04T01:32:09.273Z,762.00
2022-09-04T01:33:08.588Z,762.00
2022-09-04T01:34:10.062Z,762.00
2022-09-04T01:35:11.650Z,762.00
2022-09-04T01:36:10.106Z,760.00
2022-09-04T01:37:12.083Z,760.00
2022-09-04T01:38:13.061Z,762.00
2022-09-04T01:39:12.768Z,762.00
2022-09-04T01:40:12.842Z,762.00
2022-09-04T01:41:13.277Z,763.00
2022-09-04T01:42:13.787Z,762.00
2022-09-04T01:43:14.760Z,762.00
2022-09-04T01:44:16.118Z,762.00
2022-09-04T01:45:16.184Z,760.00
2022-09-04T01:46:15.550Z,762.00
2022-09-04T01:47:17.080Z,764.00
2022-09-04T01:48:17.568Z,765.00
2022-09-04T01:49:18.016Z,766.00
2022-09-04T01:49:30.652Z,764.00
2022-09-04T01:50:31.946Z,765.00
2022-09-04T01:51:32.726Z,765.00
2022-09-04T01:52:31.919Z,764.00
2022-09-04T01:53:33.020Z,763.00
2022-09-04T01:54:32.651Z,762.00
2022-09-04T01:55:34.430Z,762.00
2022-09-04T01:56:35.397Z,763.00
2022-09-04T01:57:34.938Z,764.00
2022-09-04T01:58:34.996Z,762.00
2022-09-04T01:59:36.743Z,763.00
2022-09-04T02:00:37.937Z,762.00
2022-09-04T02:01:36.502Z,762.00
2022-09-04T02:02:37.348Z,762.00
2022-09-04T02:03:37.901Z,762.00
2022-09-04T02:04:39.135Z,762.00
2022-09-04T02:05:39.555Z,762.00
2022-09-04T02:06:38.801Z,763.00
2022-09-04T02:07:39.462Z,762.00
2022-09-04T02:08:41.188Z,762.00
2022-09-04T02:09:41.503Z,762.00
2022-09-04T02:10:42.135Z,762.00
2022-09-04T02:11:41.396Z,763.00
2022-09-04T02:11:57.061Z,763.00
2022-09-04T02:12:56.626Z,766.00
2022-09-04T02:13:57.739Z,765.00
2022-09-04T02:14:58.740Z,763.00
2022-09-04T02:15:58.439Z,763.00
2022-09-04T02:16:58.915Z,763.00
2022-09-04T02:18:00.678Z,763.00
2022-09-04T02:19:01.497Z,762.00
2022-09-04T02:20:00.923Z,762.00
2022-09-04T02:21:02.204Z,760.00
2022-09-04T02:22:01.631Z,760.00
2022-09-04T02:23:02.027Z,762.00
2022-09-04T02:24:03.487Z,762.00
2022-09-04T02:25:04.037Z,760.00
2022-09-04T02:26:03.217Z,760.00
2022-09-04T02:27:04.670Z,762.00
2022-09-04T02:28:05.143Z,760.00
2022-09-04T02:29:04.272Z,762.00
2022-09-04T02:30:04.894Z,762.00
2022-09-04T02:31:05.404Z,762.00
2022-09-04T02:32:05.980Z,762.00
2022-09-04T02:33:06.410Z,762.00
2022-09-04T02:34:08.323Z,762.00
2022-09-04T02:35:07.476Z,760.00
2022-09-04T02:35:18.558Z,762.00
2022-09-04T02:36:20.049Z,761.00
2022-09-04T02:37:19.509Z,763.00
2022-09-04T02:38:20.884Z,762.00
2022-09-04T02:39:20.266Z,763.00
2022-09-04T02:40:20.996Z,763.00
2022-09-04T02:41:22.159Z,763.00
2022-09-04T02:42:22.564Z,763.00
2022-09-04T02:43:23.239Z,763.00
2022-09-04T02:44:24.014Z,762.00
2022-09-04T02:45:23.117Z,763.00
2022-09-04T02:46:23.845Z,762.00
2022-09-04T02:47:24.285Z,762.00
2022-09-04T02:48:25.752Z,762.00
2022-09-04T02:49:25.530Z,762.00
2022-09-04T02:50:27.281Z,762.00
2022-09-04T02:51:28.128Z,760.00
2022-09-04T02:52:28.590Z,761.00
2022-09-04T02:53:28.312Z,762.00
2022-09-04T02:54:29.878Z,762.00
2022-09-04T02:55:30.281Z,761.00
2022-09-04T02:56:29.725Z,760.00
2022-09-04T02:56:38.454Z,760.00
2022-09-04T02:57:39.055Z,761.00
2022-09-04T02:58:40.504Z,762.00
2022-09-04T02:59:40.962Z,762.00
2022-09-04T03:00:40.499Z,762.00
2022-09-04T03:01:41.012Z,762.00
2022-09-04T03:02:41.811Z,762.00
2022-09-04T03:03:42.520Z,760.00
2022-09-04T03:04:44.212Z,760.00
2022-09-04T03:05:45.212Z,760.00
2022-09-04T03:06:44.833Z,760.00
2022-09-04T03:07:45.417Z,760.00
2022-09-04T03:08:46.192Z,762.00
2022-09-04T03:09:45.302Z,762.00
2022-09-04T03:10:45.958Z,761.00
2022-09-04T03:11:47.463Z,761.00
2022-09-04T03:12:47.833Z,760.00
2022-09-04T03:13:48.537Z,762.00
2022-09-04T03:14:49.176Z,763.00
2022-09-04T03:15:48.751Z,763.00
2022-09-04T03:16:49.467Z,765.00
2022-09-04T03:17:50.917Z,761.00
2022-09-04T03:18:50.851Z,761.00
2022-09-04T03:18:59.503Z,760.00
2022-09-04T03:20:00.433Z,765.00
2022-09-04T03:21:01.432Z,763.00
2022-09-04T03:22:01.821Z,763.00
2022-09-04T03:23:01.952Z,763.00
2022-09-04T03:24:02.313Z,765.00
2022-09-04T03:25:02.521Z,766.00
2022-09-04T03:26:03.055Z,766.00
2022-09-04T03:27:03.327Z,766.00
2022-09-04T03:28:04.621Z,766.00
2022-09-04T03:29:05.146Z,766.00
2022-09-04T03:30:05.647Z,765.00
2022-09-04T03:31:06.173Z,763.00
2022-09-04T03:32:15.455Z,765.00
2022-09-04T03:33:05.691Z,765.00
2022-09-04T03:34:06.925Z,765.00
2022-09-04T03:35:06.352Z,764.00
2022-09-04T03:36:06.966Z,763.00
2022-09-04T03:37:07.321Z,762.00
2022-09-04T03:38:07.761Z,763.00
2022-09-04T03:39:09.152Z,763.00
2022-09-04T03:40:09.219Z,764.00
2022-09-04T03:41:08.776Z,764.00
2022-09-04T03:42:10.504Z,765.00
2022-09-04T03:42:20.205Z,764.00
2022-09-04T03:43:20.455Z,768.00
2022-09-04T03:44:21.954Z,768.00
2022-09-04T03:45:22.408Z,768.00
2022-09-04T03:46:23.014Z,766.00
2022-09-04T03:47:22.312Z,765.00
2022-09-04T03:48:24.179Z,765.00
2022-09-04T03:49:24.542Z,764.00
2022-09-04T03:50:23.919Z,768.00
2022-09-04T03:51:25.661Z,769.00
2022-09-04T03:52:25.260Z,768.00
2022-09-04T03:53:25.921Z,768.00
2022-09-04T03:54:26.756Z,768.00
2022-09-04T03:55:28.365Z,768.00
2022-09-04T03:56:27.786Z,768.00
2022-09-04T03:57:29.169Z,768.00
2022-09-04T03:58:29.698Z,768.00
2022-09-04T03:59:29.232Z,766.00
2022-09-04T04:00:29.619Z,765.00
2022-09-04T04:01:30.055Z,765.00
2022-09-04T04:02:30.839Z,764.00
2022-09-04T04:03:31.104Z,762.00
2022-09-04T04:04:32.711Z,765.00
2022-09-04T04:05:33.074Z,766.00
2022-09-04T04:05:42.682Z,765.00
2022-09-04T04:06:43.990Z,764.00
2022-09-04T04:07:44.004Z,764.00
2022-09-04T04:08:44.373Z,766.00
2022-09-04T04:09:45.093Z,766.00
2022-09-04T04:10:44.756Z,765.00
2022-09-04T04:11:45.465Z,763.00
2022-09-04T04:12:46.914Z,764.00
2022-09-04T04:13:46.275Z,764.00
2022-09-04T04:14:46.621Z,763.00
2022-09-04T04:15:47.080Z,766.00
2022-09-04T04:16:55.958Z,765.00
2022-09-04T04:17:48.223Z,764.00
2022-09-04T04:18:48.769Z,762.00
2022-09-04T04:19:50.060Z,763.00
2022-09-04T04:20:50.422Z,763.00
2022-09-04T04:21:51.361Z,763.00
2022-09-04T04:22:50.894Z,765.00
2022-09-04T04:23:51.013Z,765.00
2022-09-04T04:24:52.245Z,764.00
2022-09-04T04:25:53.123Z,766.00
2022-09-04T04:26:54.935Z,766.00
2022-09-04T04:27:52.846Z,766.00
2022-09-04T04:28:52.954Z,765.00
2022-09-04T04:29:04.062Z,763.00
2022-09-04T04:30:05.318Z,762.00
2022-09-04T04:31:05.641Z,766.00
2022-09-04T04:32:05.198Z,765.00
2022-09-04T04:33:06.096Z,765.00
2022-09-04T04:34:07.527Z,768.00
2022-09-04T04:35:06.903Z,766.00
2022-09-04T04:36:07.505Z,768.00
2022-09-04T04:37:09.289Z,766.00
2022-09-04T04:38:09.621Z,766.00
2022-09-04T04:39:10.336Z,765.00
2022-09-04T04:40:09.745Z,763.00
2022-09-04T04:41:10.180Z,763.00
2022-09-04T04:42:11.686Z,764.00
2022-09-04T04:43:11.913Z,763.00
2022-09-04T04:44:12.376Z,765.00
2022-09-04T04:45:12.783Z,765.00
2022-09-04T04:46:12.307Z,765.00
2022-09-04T04:47:12.664Z,765.00
2022-09-04T04:48:13.994Z,765.00
2022-09-04T04:51:23.308Z,766.00
2022-09-04T04:52:24.945Z,766.00
2022-09-04T04:53:24.484Z,765.00
2022-09-04T04:54:24.969Z,765.00
2022-09-04T04:55:26.311Z,764.00
2022-09-04T04:56:25.764Z,763.00
2022-09-04T04:57:27.470Z,765.00
2022-09-04T04:58:28.093Z,766.00
2022-09-04T04:59:27.728Z,765.00
2022-09-04T05:00:29.613Z,768.00
2022-09-04T05:01:30.293Z,766.00
2022-09-04T05:02:29.330Z,765.00
2022-09-04T05:03:29.764Z,765.00
2022-09-04T05:04:30.315Z,764.00
2022-09-04T05:05:31.447Z,763.00
2022-09-04T05:06:31.067Z,761.00
2022-09-04T05:07:33.030Z,762.00
2022-09-04T05:08:33.554Z,762.00
2022-09-04T05:09:33.719Z,760.00
2022-09-04T05:10:32.733Z,762.00
2022-09-04T05:11:34.073Z,763.00
2022-09-04T05:12:33.598Z,763.00
2022-09-04T05:12:42.757Z,762.00
2022-09-04T05:13:44.486Z,763.00
2022-09-04T05:14:43.883Z,763.00
2022-09-04T05:16:07.574Z,762.00
2022-09-04T05:16:44.995Z,762.00
2022-09-04T05:17:45.378Z,763.00
2022-09-04T05:18:45.905Z,765.00
2022-09-04T05:19:47.157Z,765.00
2022-09-04T05:20:46.786Z,764.00
2022-09-04T05:21:48.398Z,763.00
2022-09-04T05:22:48.895Z,765.00
2022-09-04T05:23:49.498Z,765.00
2022-09-04T05:24:48.987Z,763.00
2022-09-04T05:25:49.648Z,765.00
2022-09-04T05:26:49.946Z,763.00
2022-09-04T05:27:51.340Z,763.00
2022-09-04T05:28:52.030Z,765.00
2022-09-04T05:29:51.565Z,763.00
2022-09-04T05:30:52.001Z,763.00
2022-09-04T05:31:52.572Z,763.00
2022-09-04T05:32:53.080Z,763.00
2022-09-04T05:33:54.398Z,763.00
2022-09-04T05:34:54.715Z,763.00
2022-09-04T05:35:54.161Z,762.00
2022-09-04T05:36:02.921Z,760.00
2022-09-04T05:37:03.378Z,762.00
2022-09-04T05:38:03.970Z,761.00
2022-09-04T05:39:05.685Z,760.00
2022-09-04T05:40:05.711Z,763.00
2022-09-04T05:41:05.754Z,764.00
2022-09-04T05:42:06.996Z,765.00
2022-09-04T05:43:07.139Z,763.00
2022-09-04T05:44:07.690Z,763.00
2022-09-04T05:45:09.495Z,763.00
2022-09-04T05:46:09.983Z,762.00
2022-09-04T05:47:09.253Z,764.00
2022-09-04T05:48:09.762Z,765.00
2022-09-04T05:49:11.744Z,763.00
2022-09-04T05:50:11.745Z,763.00
2022-09-04T05:51:12.179Z,762.00
2022-09-04T05:52:13.158Z,763.00
2022-09-04T05:53:14.176Z,763.00
2022-09-04T05:54:13.227Z,764.00
2022-09-04T05:55:14.072Z,763.00
2022-09-04T05:56:14.604Z,763.00
2022-09-04T05:57:16.267Z,763.00
2022-09-04T05:58:17.080Z,762.00
2022-09-04T05:59:16.779Z,762.00
2022-09-04T06:00:18.241Z,762.00
2022-09-04T06:01:17.917Z,760.00
2022-09-04T06:01:27.737Z,761.00
2022-09-04T06:02:28.338Z,760.00
2022-09-04T06:03:28.679Z,760.00
2022-09-04T06:04:29.779Z,760.00
2022-09-04T06:05:29.552Z,760.00
2022-09-04T06:06:29.622Z,760.00
2022-09-04T06:07:30.114Z,760.00
2022-09-04T06:08:31.670Z,760.00
2022-09-04T06:09:30.944Z,759.00
2022-09-04T06:10:32.619Z,760.00
2022-09-04T06:11:32.356Z,760.00
2022-09-04T06:12:33.115Z,760.00
2022-09-04T06:13:34.000Z,760.00
2022-09-04T06:14:34.678Z,760.00
2022-09-04T06:15:35.660Z,762.00
2022-09-04T06:16:37.115Z,762.00
2022-09-04T06:17:36.397Z,762.00
2022-09-04T06:18:36.691Z,760.00
2022-09-04T06:19:36.879Z,760.00
2022-09-04T06:20:36.976Z,760.00
2022-09-04T06:21:36.954Z,760.00
2022-09-04T06:22:37.456Z,760.00
2022-09-04T06:23:37.634Z,760.00
2022-09-04T06:24:37.809Z,758.00
2022-09-04T06:25:38.082Z,759.00
2022-09-04T06:25:48.317Z,760.00
2022-09-04T06:26:49.707Z,759.00
2022-09-04T06:27:49.310Z,759.00
2022-09-04T06:28:50.184Z,760.00
2022-09-04T06:29:51.112Z,759.00
2022-09-04T06:30:51.961Z,759.00
2022-09-04T06:31:51.819Z,759.00
2022-09-04T06:32:53.128Z,759.00
2022-09-04T06:33:53.298Z,757.00
2022-09-04T06:34:52.542Z,757.00
2022-09-04T06:35:52.676Z,759.00
2022-09-04T06:36:52.856Z,759.00
2022-09-04T06:37:52.940Z,759.00
2022-09-04T06:38:53.724Z,759.00
2022-09-04T06:39:53.923Z,758.00
2022-09-04T06:40:54.046Z,758.00
2022-09-04T06:41:54.381Z,758.00
2022-09-04T06:42:54.927Z,758.00
2022-09-04T06:43:56.351Z,757.00
2022-09-04T06:44:56.223Z,756.00
2022-09-04T06:46:02.163Z,757.00
2022-09-04T06:46:56.952Z,759.00
2022-09-04T06:47:57.657Z,757.00
2022-09-04T06:48:57.805Z,758.00
2022-09-04T06:49:10.725Z,758.00
2022-09-04T06:50:11.945Z,759.00
2022-09-04T06:51:12.954Z,759.00
2022-09-04T06:52:12.124Z,759.00
2022-09-04T06:53:12.974Z,758.00
2022-09-04T06:54:13.182Z,759.00
2022-09-04T06:55:13.199Z,757.00
2022-09-04T06:56:13.482Z,758.00
2022-09-04T06:57:13.753Z,758.00
2022-09-04T06:58:14.594Z,759.00
2022-09-04T06:59:15.006Z,759.00
2022-09-04T07:00:16.640Z,757.00
2022-09-04T07:01:16.248Z,758.00
2022-09-04T07:02:18.045Z,758.00
2022-09-04T07:03:17.025Z,758.00
2022-09-04T07:04:18.901Z,754.00
2022-09-04T07:05:20.152Z,756.00
2022-09-04T07:05:34.068Z,756.00
2022-09-04T07:06:32.776Z,757.00
2022-09-04T07:07:33.244Z,754.00
2022-09-04T07:08:32.503Z,756.00
2022-09-04T07:09:33.155Z,756.00
2022-09-04T07:10:34.087Z,756.00
2022-09-04T07:11:34.764Z,754.00
2022-09-04T07:12:35.214Z,756.00
2022-09-04T07:13:36.925Z,753.00
2022-09-04T07:14:36.476Z,753.00
2022-09-04T07:15:37.141Z,753.00
2022-09-04T07:16:37.246Z,754.00
2022-09-04T07:17:37.648Z,753.00
2022-09-04T07:18:38.641Z,750.00
2022-09-04T07:19:39.423Z,753.00
2022-09-04T07:20:40.185Z,750.00
2022-09-04T07:21:40.271Z,753.00
2022-09-04T07:22:40.792Z,751.00
2022-09-04T07:23:41.596Z,750.00
2022-09-04T07:24:43.159Z,752.00
2022-09-04T07:25:42.220Z,753.00
2022-09-04T07:26:43.802Z,750.00
2022-09-04T07:27:43.491Z,751.00
2022-09-04T07:28:44.316Z,750.00
2022-09-04T07:29:45.956Z,750.00
2022-09-04T07:29:54.735Z,750.00
2022-09-04T07:30:54.969Z,750.00
2022-09-04T07:31:56.782Z,750.00
2022-09-04T07:32:56.192Z,750.00
2022-09-04T07:33:57.447Z,750.00
2022-09-04T07:34:57.299Z,750.00
2022-09-04T07:35:57.305Z,750.00
2022-09-04T07:36:58.868Z,750.00
2022-09-04T07:38:00.934Z,750.00
2022-09-04T07:39:00.575Z,749.00
2022-09-04T07:40:01.601Z,750.00
2022-09-04T07:41:01.221Z,750.00
2022-09-04T07:42:01.629Z,749.00
2022-09-04T07:43:02.973Z,749.00
2022-09-04T07:44:02.670Z,749.00
2022-09-04T07:45:04.098Z,749.00
2022-09-04T07:46:04.412Z,749.00
2022-09-04T07:47:04.015Z,748.00
2022-09-04T07:48:04.978Z,748.00
2022-09-04T07:49:05.979Z,748.00
2022-09-04T07:50:06.087Z,748.00
2022-09-04T07:51:06.015Z,750.00
2022-09-04T07:52:06.831Z,748.00
2022-09-04T07:52:17.812Z,749.00
2022-09-04T07:53:18.233Z,750.00
